ARDEC Weather Station

Colorado State Home Page USDA/ARS Home Page



Station:CSU - ARDEC
Location:6 mi NE Fort Collins
Elevation:5110
Longitude:105
Latitude:40.6525

ARDEC 5 Minute Data
Date Time Temp RelHum Dewpt Vapor Solar Wind Spd Wind Dir Precip 5 Soil 15 Soil Gust Spd Gust Tim Gust Dir Battery
MST °F %°Fmb ly/min mph °in. °F °F mphMST ° volts
2014-07-3106:20 59.4 89.0 56.2 15.40 0.37 2.9 360 0.00 65.0 66.5 4.4 06:18 10 11.58
2014-07-3106:15 58.8 91.6 56.3 15.49 0.35 2.9 360 0.00 64.9 66.6 3.9 06:10 354 11.57
2014-07-3106:10 57.9 94.3 56.3 15.47 0.27 2.9 359 0.00 65.0 66.6 4.9 06:07 12 11.57
2014-07-3106:05 57.4 97.9 56.8 15.72 0.21 3.9 7 0.00 65.0 66.6 4.9 06:03 351 11.57
2014-07-3106:00 56.9 100.1 57.0 15.84 0.23 3.5 19 0.00 65.0 66.6 4.9 05:55 10 11.58
2014-07-3105:55 56.5 100.4 56.6 15.64 0.21 4.8 28 0.00 65.0 66.6 5.8 05:50 25 11.58
2014-07-3105:50 56.4 100.5 56.5 15.59 0.18 4.9 24 0.00 65.0 66.6 6.6 05:47 30 11.57
2014-07-3105:45 56.3 100.6 56.5 15.57 0.15 4.1 25 0.00 65.0 66.7 5.7 05:44 11 11.57
2014-07-3105:40 56.3 100.6 56.5 15.56 0.13 3.2 15 0.00 65.0 66.7 4.7 05:40 13 11.57
2014-07-3105:35 56.0 100.6 56.2 15.39 0.10 4.1 22 0.00 65.0 66.7 5.2 05:31 26 11.57
2014-07-3105:30 56.0 100.5 56.1 15.35 0.06 3.4 11 0.00 65.1 66.7 4.8 05:29 5 11.57
2014-07-3105:25 55.9 100.5 56.0 15.28 0.05 3.2 14 0.00 65.1 66.7 4.2 05:21 3 11.57
2014-07-3105:20 55.9 100.5 56.1 15.34 0.04 3.8 29 0.00 65.1 66.7 5.0 05:18 28 11.57
2014-07-3105:15 56.0 100.6 56.2 15.40 0.03 3.5 19 0.00 65.1 66.7 5.0 05:12 0 11.57
2014-07-3105:10 56.0 100.6 56.2 15.42 0.03 4.2 11 0.00 65.2 66.8 5.6 05:09 18 11.57
2014-07-3105:05 56.1 100.7 56.3 15.46 0.02 4.2 17 0.00 65.2 66.8 5.5 05:01 25 11.57
2014-07-3105:00 56.2 100.7 56.4 15.52 0.01 4.3 20 0.00 65.2 66.8 5.6 04:56 16 11.58
2014-07-3104:55 56.4 100.8 56.6 15.61 0.00 3.0 19 0.00 65.2 66.8 3.9 04:53 14 11.57
2014-07-3104:50 56.5 100.8 56.8 15.71 0.00 2.8 16 0.00 65.2 66.8 3.8 04:49 9 11.57
2014-07-3104:45 56.7 100.8 56.9 15.80 0.00 3.5 10 0.00 65.2 66.8 4.6 04:43 10 11.57
2014-07-3104:40 56.9 100.8 57.1 15.91 0.00 3.3 357 0.00 65.2 66.8 4.1 04:39 3 11.57
2014-07-3104:35 57.0 100.8 57.2 15.96 0.00 3.5 10 0.00 65.3 66.8 4.9 04:30 34 11.57
2014-07-3104:30 57.1 100.7 57.3 16.02 0.00 3.7 15 0.00 65.3 66.9 5.0 04:26 8 11.58
2014-07-3104:25 57.1 100.7 57.3 16.04 0.00 2.3 27 0.00 65.3 66.9 3.5 04:21 32 11.57
2014-07-3104:20 57.1 100.7 57.3 16.05 0.00 3.0 15 0.00 65.3 66.9 4.4 04:18 4 11.57

 


Plots for last week.

ARDEC Home


DISCLAIMER

Authorized use of this data is limited to the academic, administrative, research Colorado State University and its Cooperative and Extension facilities. Use is NOT authorized for operational or commercial purposes. The data are provided "as is", and in no event shall the providers be liable for any damage or loss due to missing data or misinterpretation of its content.

 


Return to the CoAgMet Homepage.